createdAt,value
2016-05-05T00:00:22.570Z,0
2016-05-05T00:01:35.995Z,0
2016-05-05T00:02:21.670Z,0
2016-05-05T00:03:36.484Z,0
2016-05-05T00:04:21.753Z,0
2016-05-05T00:05:21.661Z,0
2016-05-05T00:06:21.492Z,0
2016-05-05T00:07:21.636Z,0
2016-05-05T00:08:22.435Z,0
2016-05-05T00:09:21.501Z,0
2016-05-05T00:10:22.035Z,0
2016-05-05T00:11:21.913Z,0
2016-05-05T00:12:36.243Z,0
2016-05-05T00:13:21.605Z,0
2016-05-05T00:14:23.186Z,0
2016-05-05T00:15:21.907Z,0
2016-05-05T00:16:21.441Z,0
2016-05-05T00:17:22.599Z,0
2016-05-05T00:18:22.338Z,0
2016-05-05T00:19:21.699Z,0
2016-05-05T00:20:21.733Z,0
2016-05-05T00:21:21.424Z,0
2016-05-05T00:22:21.582Z,0
2016-05-05T00:23:22.945Z,0
2016-05-05T00:24:22.135Z,0
2016-05-05T00:25:22.700Z,0
2016-05-05T00:26:22.531Z,0
2016-05-05T00:27:22.127Z,0
2016-05-05T00:28:21.848Z,0
2016-05-05T00:29:21.570Z,0
2016-05-05T00:30:21.244Z,0
2016-05-05T00:31:21.513Z,0
2016-05-05T00:32:21.547Z,0
2016-05-05T00:33:21.377Z,0
2016-05-05T00:34:21.537Z,0
2016-05-05T00:35:21.523Z,0
2016-05-05T00:36:21.526Z,0
2016-05-05T00:37:21.358Z,0
2016-05-05T00:38:21.531Z,0
2016-05-05T00:39:22.222Z,0
2016-05-05T00:40:21.365Z,0
2016-05-05T00:41:21.493Z,0
2016-05-05T00:42:21.480Z,0
2016-05-05T00:43:21.499Z,0
2016-05-05T00:44:21.329Z,0
2016-05-05T00:45:21.472Z,0
2016-05-05T00:46:21.490Z,0
2016-05-05T00:47:21.478Z,0
2016-05-05T00:48:21.465Z,0
2016-05-05T00:49:21.311Z,0
2016-05-05T00:50:21.454Z,0
2016-05-05T00:51:21.458Z,0
2016-05-05T00:52:21.444Z,0
2016-05-05T00:53:21.463Z,0
2016-05-05T00:54:21.481Z,0
2016-05-05T00:55:21.437Z,0
2016-05-05T00:56:21.112Z,0
2016-05-05T00:57:21.427Z,0
2016-05-05T00:58:21.274Z,0
2016-05-05T00:59:21.417Z,0
2016-05-05T01:00:21.419Z,0
2016-05-05T01:01:21.422Z,0
2016-05-05T01:02:21.409Z,0
2016-05-05T01:03:21.098Z,0
2016-05-05T01:04:21.398Z,0
2016-05-05T01:05:21.401Z,0
2016-05-05T01:06:21.404Z,0
2016-05-05T01:07:21.375Z,0
2016-05-05T01:08:21.378Z,0
2016-05-05T01:09:21.411Z,0
2016-05-05T01:10:21.383Z,0
2016-05-05T01:11:21.355Z,0
2016-05-05T01:12:21.372Z,0
2016-05-05T01:13:21.360Z,0
2016-05-05T01:14:21.347Z,0
2016-05-05T01:15:21.366Z,0
2016-05-05T01:16:21.072Z,0
2016-05-05T01:17:21.683Z,0
2016-05-05T01:18:21.483Z,0
2016-05-05T01:19:21.345Z,0
2016-05-05T01:20:35.910Z,0
2016-05-05T01:21:21.022Z,0
2016-05-05T01:22:21.572Z,0
2016-05-05T01:23:21.574Z,0
2016-05-05T01:24:21.484Z,0
2016-05-05T01:25:21.315Z,0
2016-05-05T01:26:21.005Z,0
2016-05-05T01:27:21.492Z,0
2016-05-05T01:28:22.448Z,0
2016-05-05T01:29:22.497Z,0
2016-05-05T01:30:21.937Z,0
2016-05-05T01:31:21.143Z,0
2016-05-05T01:32:21.365Z,0
2016-05-05T01:33:23.601Z,0
2016-05-05T01:34:22.807Z,0
2016-05-05T01:35:21.764Z,0
2016-05-05T01:36:22.079Z,0
2016-05-05T01:37:21.862Z,0
2016-05-05T01:38:21.568Z,0
2016-05-05T01:39:22.117Z,0
2016-05-05T01:40:21.120Z,0
2016-05-05T01:41:21.092Z,0
2016-05-05T01:42:22.533Z,0
2016-05-05T01:43:23.519Z,0
2016-05-05T01:44:21.225Z,0
2016-05-05T01:45:21.228Z,0
2016-05-05T01:46:22.089Z,0
2016-05-05T01:47:21.326Z,0
2016-05-05T01:48:22.173Z,0
2016-05-05T01:49:21.207Z,0
2016-05-05T01:50:21.194Z,0
2016-05-05T01:51:21.213Z,0
2016-05-05T01:52:21.205Z,0
2016-05-05T01:53:21.109Z,0
2016-05-05T01:54:21.296Z,0
2016-05-05T01:55:21.325Z,0
2016-05-05T01:56:21.042Z,0
2016-05-05T01:57:21.230Z,0
2016-05-05T01:58:21.420Z,0
2016-05-05T01:59:21.407Z,0
2016-05-05T02:00:21.268Z,0
2016-05-05T02:01:21.444Z,0
2016-05-05T02:02:21.300Z,0
2016-05-05T02:03:21.434Z,0
2016-05-05T02:04:21.285Z,0
2016-05-05T02:05:21.451Z,0
2016-05-05T02:06:21.444Z,0
2016-05-05T02:07:21.450Z,0
2016-05-05T02:08:21.439Z,0
2016-05-05T02:09:21.413Z,0
2016-05-05T02:10:21.433Z,0
2016-05-05T02:11:21.437Z,0
2016-05-05T02:12:21.285Z,0
2016-05-05T02:13:21.430Z,0
2016-05-05T02:14:21.432Z,0
2016-05-05T02:15:21.265Z,0
2016-05-05T02:16:21.408Z,0
2016-05-05T02:17:21.255Z,0
2016-05-05T02:18:21.399Z,0
2016-05-05T02:19:21.090Z,0
2016-05-05T02:20:21.249Z,0
2016-05-05T02:21:21.236Z,0
2016-05-05T02:22:21.240Z,0
2016-05-05T02:23:21.463Z,0
2016-05-05T02:24:22.059Z,0
2016-05-05T02:25:21.390Z,0
2016-05-05T02:26:21.376Z,0
2016-05-05T02:27:21.364Z,0
2016-05-05T02:28:21.367Z,0
2016-05-05T02:29:21.354Z,0
2016-05-05T02:30:21.341Z,0
2016-05-05T02:31:21.359Z,0
2016-05-05T02:32:21.034Z,0
2016-05-05T02:33:21.192Z,0
2016-05-05T02:34:21.023Z,0
2016-05-05T02:35:21.339Z,0
2016-05-05T02:36:23.481Z,0
2016-05-05T02:37:23.219Z,0
2016-05-05T02:38:22.065Z,0
2016-05-05T02:39:36.240Z,0
2016-05-05T02:40:21.150Z,0
2016-05-05T02:41:21.245Z,0
2016-05-05T02:42:21.498Z,0
2016-05-05T02:43:21.797Z,0
2016-05-05T02:44:21.332Z,0
2016-05-05T02:45:21.131Z,0
2016-05-05T02:46:23.258Z,0
2016-05-05T02:47:21.293Z,0
2016-05-05T02:48:22.077Z,0
2016-05-05T02:49:21.719Z,0
2016-05-05T02:50:21.567Z,0
2016-05-05T02:51:23.429Z,0
2016-05-05T02:52:22.666Z,0
2016-05-05T02:53:21.465Z,0
2016-05-05T02:54:22.780Z,0
2016-05-05T02:55:22.002Z,0
2016-05-05T02:56:21.396Z,0
2016-05-05T02:57:20.913Z,0
2016-05-05T02:58:21.244Z,0
2016-05-05T02:59:21.076Z,0
2016-05-05T03:00:21.250Z,0
2016-05-05T03:01:21.518Z,0
2016-05-05T03:02:21.990Z,0
2016-05-05T03:03:21.742Z,0
2016-05-05T03:04:21.182Z,0
2016-05-05T03:05:21.826Z,0
2016-05-05T03:06:21.531Z,0
2016-05-05T03:07:21.190Z,0
2016-05-05T03:08:21.021Z,0
2016-05-05T03:09:20.728Z,0
2016-05-05T03:10:21.011Z,0
2016-05-05T03:11:21.153Z,0
2016-05-05T03:12:21.000Z,0
2016-05-05T03:13:21.003Z,0
2016-05-05T03:14:21.147Z,0
2016-05-05T03:15:21.133Z,0
2016-05-05T03:16:21.136Z,0
2016-05-05T03:17:21.139Z,5
2016-05-05T03:18:21.127Z,5
2016-05-05T03:19:21.130Z,5
2016-05-05T03:20:21.132Z,5
2016-05-05T03:21:21.102Z,5
2016-05-05T03:22:21.105Z,5
2016-05-05T03:23:20.936Z,5
2016-05-05T03:24:21.721Z,10
2016-05-05T03:25:21.083Z,10
2016-05-05T03:26:21.069Z,10
2016-05-05T03:27:21.072Z,10
2016-05-05T03:28:21.074Z,10
2016-05-05T03:29:20.907Z,15
2016-05-05T03:30:21.049Z,15
2016-05-05T03:31:20.911Z,15
2016-05-05T03:32:21.039Z,15
2016-05-05T03:33:21.042Z,15
2016-05-05T03:34:21.045Z,20
2016-05-05T03:35:21.032Z,20
2016-05-05T03:36:21.034Z,20
2016-05-05T03:37:21.021Z,20
2016-05-05T03:38:21.009Z,25
2016-05-05T03:39:21.026Z,25
2016-05-05T03:40:21.014Z,30
2016-05-05T03:41:20.844Z,30
2016-05-05T03:42:20.987Z,35
2016-05-05T03:43:21.006Z,35
2016-05-05T03:44:20.525Z,40
2016-05-05T03:45:20.667Z,45
2016-05-05T03:46:20.811Z,40
2016-05-05T03:47:20.970Z,45
2016-05-05T03:48:20.958Z,50
2016-05-05T03:49:20.960Z,50
2016-05-05T03:50:20.962Z,50
2016-05-05T03:51:20.793Z,55
2016-05-05T03:52:20.936Z,55
2016-05-05T03:53:20.923Z,60
2016-05-05T03:54:21.754Z,60
2016-05-05T03:55:23.069Z,60
2016-05-05T03:56:22.150Z,65
2016-05-05T03:57:22.075Z,70
2016-05-05T03:58:35.077Z,70
2016-05-05T03:59:21.549Z,75
2016-05-05T04:00:21.082Z,80
2016-05-05T04:01:20.898Z,90
2016-05-05T04:02:20.885Z,95
2016-05-05T04:03:20.887Z,100
2016-05-05T04:04:22.156Z,105
2016-05-05T04:05:22.299Z,105
2016-05-05T04:06:21.302Z,110
2016-05-05T04:07:20.852Z,115
2016-05-05T04:08:20.979Z,120
2016-05-05T04:09:21.342Z,125
2016-05-05T04:10:22.281Z,130
2016-05-05T04:11:21.472Z,135
2016-05-05T04:12:22.537Z,140
2016-05-05T04:13:20.665Z,145
2016-05-05T04:14:21.870Z,150
2016-05-05T04:15:21.592Z,150
2016-05-05T04:16:21.298Z,155
2016-05-05T04:17:20.504Z,165
2016-05-05T04:18:20.631Z,170
2016-05-05T04:19:20.791Z,175
2016-05-05T04:20:22.402Z,175
2016-05-05T04:21:20.483Z,185
2016-05-05T04:22:22.111Z,190
2016-05-05T04:23:21.129Z,195
2016-05-05T04:24:21.225Z,200
2016-05-05T04:25:21.353Z,205
2016-05-05T04:26:20.966Z,215
2016-05-05T04:27:20.594Z,220
2016-05-05T04:28:20.611Z,225
2016-05-05T04:29:20.786Z,230
2016-05-05T04:30:20.773Z,240
2016-05-05T04:31:20.619Z,250
2016-05-05T04:32:20.607Z,255
2016-05-05T04:33:20.624Z,265
2016-05-05T04:34:20.752Z,270
2016-05-05T04:35:20.458Z,270
2016-05-05T04:36:20.758Z,275
2016-05-05T04:37:20.745Z,280
2016-05-05T04:38:20.592Z,285
2016-05-05T04:39:20.766Z,290
2016-05-05T04:40:20.597Z,305
2016-05-05T04:41:20.756Z,325
2016-05-05T04:42:20.603Z,330
2016-05-05T04:43:20.761Z,330
2016-05-05T04:44:20.764Z,340
2016-05-05T04:45:20.595Z,345
2016-05-05T04:46:20.598Z,350
2016-05-05T04:47:20.756Z,375
2016-05-05T04:48:20.602Z,385
2016-05-05T04:49:20.606Z,385
2016-05-05T04:50:20.764Z,390
2016-05-05T04:51:20.611Z,390
2016-05-05T04:52:20.613Z,390
2016-05-05T04:53:20.773Z,405
2016-05-05T04:54:20.713Z,425
2016-05-05T04:55:20.777Z,425
2016-05-05T04:56:20.609Z,410
2016-05-05T04:57:20.783Z,420
2016-05-05T04:58:20.785Z,445
2016-05-05T04:59:20.789Z,465
2016-05-05T05:00:20.635Z,470
2016-05-05T05:01:20.810Z,470
2016-05-05T05:02:20.797Z,475
2016-05-05T05:03:20.799Z,485
2016-05-05T05:04:20.645Z,505
2016-05-05T05:05:20.804Z,515
2016-05-05T05:06:20.652Z,520
2016-05-05T05:07:20.826Z,540
2016-05-05T05:08:20.673Z,555
2016-05-05T05:09:21.221Z,555
2016-05-05T05:10:20.834Z,545
2016-05-05T05:11:20.836Z,550
2016-05-05T05:12:20.855Z,565
2016-05-05T05:13:20.857Z,585
2016-05-05T05:14:22.095Z,625
2016-05-05T05:15:22.238Z,650
2016-05-05T05:16:21.975Z,635
2016-05-05T05:17:34.899Z,600
2016-05-05T05:18:21.386Z,605
2016-05-05T05:19:20.780Z,610
2016-05-05T05:20:21.501Z,615
2016-05-05T05:21:21.208Z,640
2016-05-05T05:22:20.913Z,675
2016-05-05T05:23:23.838Z,675
2016-05-05T05:24:22.622Z,655
2016-05-05T05:25:21.186Z,680
2016-05-05T05:26:35.221Z,710
2016-05-05T05:27:21.644Z,700
2016-05-05T05:28:35.132Z,680
2016-05-05T05:29:21.900Z,695
2016-05-05T05:30:23.075Z,745
2016-05-05T05:31:20.984Z,785
2016-05-05T05:32:21.158Z,770
2016-05-05T05:33:20.536Z,765
2016-05-05T05:34:20.851Z,770
2016-05-05T05:35:21.370Z,780
2016-05-05T05:36:21.029Z,790
2016-05-05T05:37:21.140Z,820
2016-05-05T05:38:21.674Z,815
2016-05-05T05:39:22.974Z,775
2016-05-05T05:40:21.962Z,770
2016-05-05T05:41:20.932Z,805
2016-05-05T05:42:21.701Z,870
2016-05-05T05:43:21.828Z,930
2016-05-05T05:44:21.581Z,960
2016-05-05T05:45:21.303Z,955
2016-05-05T05:46:21.134Z,930
2016-05-05T05:47:21.152Z,940
2016-05-05T05:48:20.983Z,960
2016-05-05T05:49:21.001Z,955
2016-05-05T05:50:21.003Z,965
2016-05-05T05:51:21.022Z,990
2016-05-05T05:52:21.041Z,1020
2016-05-05T05:53:20.574Z,1040
2016-05-05T05:54:21.483Z,1055
2016-05-05T05:55:21.220Z,1050
2016-05-05T05:56:20.910Z,1030
2016-05-05T05:57:21.085Z,1010
2016-05-05T05:58:21.275Z,990
2016-05-05T05:59:21.106Z,1015
2016-05-05T06:00:21.265Z,1055
2016-05-05T06:01:21.299Z,1095
2016-05-05T06:02:21.285Z,1145
2016-05-05T06:03:21.288Z,1185
2016-05-05T06:04:21.323Z,1200
2016-05-05T06:05:21.341Z,1210
2016-05-05T06:06:21.172Z,1225
2016-05-05T06:07:21.346Z,1240
2016-05-05T06:08:21.348Z,1225
2016-05-05T06:09:22.492Z,1215
2016-05-05T06:10:21.261Z,1225
2016-05-05T06:11:21.232Z,1240
2016-05-05T06:12:21.390Z,1265
2016-05-05T06:13:21.440Z,1265
2016-05-05T06:14:21.412Z,1265
2016-05-05T06:15:21.305Z,1275
2016-05-05T06:16:21.448Z,1295
2016-05-05T06:17:21.451Z,1300
2016-05-05T06:18:21.485Z,1325
2016-05-05T06:19:21.472Z,1360
2016-05-05T06:20:21.491Z,1390
2016-05-05T06:21:21.509Z,1370
2016-05-05T06:22:21.511Z,1350
2016-05-05T06:23:21.290Z,1350
2016-05-05T06:24:21.589Z,1390
2016-05-05T06:25:21.545Z,1395
2016-05-05T06:26:21.564Z,1390
2016-05-05T06:27:21.410Z,1380
2016-05-05T06:28:21.584Z,1395
2016-05-05T06:29:21.446Z,1450
2016-05-05T06:30:21.605Z,1470
2016-05-05T06:31:21.483Z,1450
2016-05-05T06:32:21.627Z,1415
2016-05-05T06:33:23.895Z,1415
2016-05-05T06:34:22.945Z,1435
2016-05-05T06:35:21.759Z,1465
2016-05-05T06:36:22.340Z,1475
2016-05-05T06:37:22.546Z,1470
2016-05-05T06:38:21.564Z,1520
2016-05-05T06:39:21.801Z,1595
2016-05-05T06:40:21.820Z,1640
2016-05-05T06:41:21.744Z,1630
2016-05-05T06:42:36.685Z,1580
2016-05-05T06:43:21.828Z,1570
2016-05-05T06:44:22.284Z,1610
2016-05-05T06:45:22.192Z,1635
2016-05-05T06:46:21.820Z,1630
2016-05-05T06:47:21.886Z,1640
2016-05-05T06:48:24.435Z,1665
2016-05-05T06:49:21.860Z,1685
2016-05-05T06:50:21.956Z,1700
2016-05-05T06:51:21.896Z,1710
2016-05-05T06:52:22.555Z,1715
2016-05-05T06:53:22.496Z,1695
2016-05-05T06:54:22.217Z,1755
2016-05-05T06:55:22.063Z,1795
2016-05-05T06:56:21.925Z,1795
2016-05-05T06:57:23.225Z,1775
2016-05-05T06:58:22.305Z,1720
2016-05-05T06:59:23.715Z,1680
2016-05-05T07:00:21.732Z,1680
2016-05-05T07:01:22.377Z,1685
2016-05-05T07:02:21.895Z,1775
2016-05-05T07:03:22.179Z,1865
2016-05-05T07:04:22.104Z,1890
2016-05-05T07:05:22.107Z,1875
2016-05-05T07:06:22.124Z,1830
2016-05-05T07:07:21.971Z,1815
2016-05-05T07:08:22.145Z,1830
2016-05-05T07:09:22.039Z,1820
2016-05-05T07:10:22.182Z,1795
2016-05-05T07:11:22.200Z,1810
2016-05-05T07:12:22.218Z,1845
2016-05-05T07:13:22.237Z,1820
2016-05-05T07:14:22.256Z,1770
2016-05-05T07:15:22.273Z,1725
2016-05-05T07:16:22.291Z,1785
2016-05-05T07:17:22.295Z,1900
2016-05-05T07:18:22.313Z,1995
2016-05-05T07:19:22.331Z,2065
2016-05-05T07:20:22.349Z,2050
2016-05-05T07:21:22.367Z,1965
2016-05-05T07:22:22.386Z,1900
2016-05-05T07:23:22.404Z,1900
2016-05-05T07:24:22.594Z,1910
2016-05-05T07:25:22.441Z,1940
2016-05-05T07:26:22.444Z,1975
2016-05-05T07:27:22.321Z,1955
2016-05-05T07:28:22.496Z,1815
2016-05-05T07:29:22.514Z,1660
2016-05-05T07:30:22.377Z,1615
2016-05-05T07:31:22.394Z,1640
2016-05-05T07:32:22.585Z,1665
2016-05-05T07:33:22.432Z,1705
2016-05-05T07:34:22.606Z,1765
2016-05-05T07:35:22.624Z,1790
2016-05-05T07:36:22.487Z,1775
2016-05-05T07:37:22.660Z,1785
2016-05-05T07:38:22.679Z,1815
2016-05-05T07:39:22.556Z,1865
2016-05-05T07:40:22.576Z,1925
2016-05-05T07:41:22.718Z,1975
2016-05-05T07:42:22.752Z,2025
2016-05-05T07:43:22.771Z,2065
2016-05-05T07:44:22.633Z,2040
2016-05-05T07:45:22.807Z,2000
2016-05-05T07:46:22.856Z,1940
2016-05-05T07:47:22.844Z,1875
2016-05-05T07:48:22.862Z,1835
2016-05-05T07:49:22.724Z,1805
2016-05-05T07:50:22.900Z,1970
2016-05-05T07:51:52.073Z,2485
2016-05-05T07:52:22.936Z,2550
2016-05-05T07:53:23.657Z,2535
2016-05-05T07:54:38.378Z,2505
2016-05-05T07:55:23.287Z,2510
2016-05-05T07:56:22.852Z,2545
2016-05-05T07:57:22.871Z,2605
2016-05-05T07:58:23.046Z,2615
2016-05-05T07:59:23.064Z,2610
2016-05-05T08:00:23.082Z,2620
2016-05-05T08:01:23.710Z,2665
2016-05-05T08:02:23.868Z,2695
2016-05-05T08:03:23.309Z,2685
2016-05-05T08:04:23.187Z,2645
2016-05-05T08:05:23.533Z,2645
2016-05-05T08:06:23.036Z,2560
2016-05-05T08:07:26.085Z,2540
2016-05-05T08:08:23.275Z,2560
2016-05-05T08:09:24.591Z,2190
2016-05-05T08:10:23.796Z,1790
2016-05-05T08:11:23.877Z,1760
2016-05-05T08:12:23.879Z,1755
2016-05-05T08:13:23.601Z,1790
2016-05-05T08:14:23.370Z,1830
2016-05-05T08:15:23.388Z,1850
2016-05-05T08:16:25.375Z,1850
2016-05-05T08:17:24.002Z,1840
2016-05-05T08:18:24.365Z,1850
2016-05-05T08:19:24.555Z,1875
2016-05-05T08:20:24.214Z,1890
2016-05-05T08:21:23.936Z,1880
2016-05-05T08:22:24.220Z,1830
2016-05-05T08:23:23.550Z,1800
2016-05-05T08:24:24.006Z,1790
2016-05-05T08:25:23.430Z,1770
2016-05-05T08:26:23.464Z,1710
2016-05-05T08:27:23.639Z,1620
2016-05-05T08:28:23.642Z,1530
2016-05-05T08:29:23.660Z,1485
2016-05-05T08:30:23.710Z,1565
2016-05-05T08:31:23.713Z,1710
2016-05-05T08:32:23.730Z,1860
2016-05-05T08:33:23.593Z,1930
2016-05-05T08:34:23.752Z,1915
2016-05-05T08:35:23.457Z,1865
2016-05-05T08:36:23.804Z,1725
2016-05-05T08:37:23.651Z,995
2016-05-05T08:38:23.684Z,390
2016-05-05T08:39:24.296Z,370
2016-05-05T08:40:23.704Z,365
2016-05-05T08:41:23.707Z,360
2016-05-05T08:42:23.898Z,360
2016-05-05T08:43:23.901Z,360
2016-05-05T08:44:23.903Z,360
2016-05-05T08:45:23.626Z,365
2016-05-05T08:46:23.940Z,355
2016-05-05T08:47:23.677Z,355
2016-05-05T08:48:23.976Z,355
2016-05-05T08:49:23.979Z,355
2016-05-05T08:50:23.998Z,355
2016-05-05T08:51:23.859Z,350
2016-05-05T08:52:23.847Z,350
2016-05-05T08:53:23.881Z,350
2016-05-05T08:54:23.899Z,345
2016-05-05T08:55:24.058Z,345
2016-05-05T08:56:23.920Z,345
2016-05-05T08:57:24.095Z,340
2016-05-05T08:58:24.082Z,340
2016-05-05T08:59:23.943Z,340
2016-05-05T09:00:24.088Z,340
2016-05-05T09:01:24.106Z,335
2016-05-05T09:02:24.123Z,335
2016-05-05T09:03:24.111Z,335
2016-05-05T09:04:24.129Z,335
2016-05-05T09:05:24.132Z,335
2016-05-05T09:06:23.978Z,335
2016-05-05T09:07:24.168Z,335
2016-05-05T09:08:24.140Z,335
2016-05-05T09:09:24.721Z,335
2016-05-05T09:10:39.395Z,330
2016-05-05T09:11:25.117Z,330
2016-05-05T09:13:24.169Z,325
2016-05-05T09:14:24.531Z,325
2016-05-05T09:15:38.049Z,325
2016-05-05T09:16:24.193Z,320
2016-05-05T09:17:24.196Z,320
2016-05-05T09:18:24.041Z,320
2016-05-05T09:20:38.375Z,320
2016-05-05T09:21:24.815Z,320
2016-05-05T09:22:27.381Z,315
2016-05-05T09:23:24.711Z,315
2016-05-05T09:24:24.214Z,320
2016-05-05T09:25:25.716Z,315
2016-05-05T09:26:25.048Z,315
2016-05-05T09:27:24.050Z,315
2016-05-05T09:28:25.444Z,310
2016-05-05T09:29:24.806Z,310
2016-05-05T09:30:24.466Z,310
2016-05-05T09:31:23.926Z,310
2016-05-05T09:32:24.229Z,310
2016-05-05T09:33:24.137Z,310
2016-05-05T09:34:24.264Z,310
2016-05-05T09:35:24.892Z,310
2016-05-05T09:36:25.395Z,310
2016-05-05T09:37:25.382Z,305
2016-05-05T09:38:24.806Z,305
2016-05-05T09:39:24.591Z,305
2016-05-05T09:40:24.280Z,305
2016-05-05T09:41:24.549Z,305
2016-05-05T09:42:24.140Z,300
2016-05-05T09:43:24.377Z,300
2016-05-05T09:44:24.270Z,300
2016-05-05T09:45:24.116Z,300
2016-05-05T09:46:24.276Z,300
2016-05-05T09:47:24.606Z,300
2016-05-05T09:48:24.656Z,300
2016-05-05T09:49:24.128Z,300
2016-05-05T09:50:24.286Z,300
2016-05-05T09:51:24.133Z,295
2016-05-05T09:52:24.292Z,295
2016-05-05T09:53:24.138Z,295
2016-05-05T09:54:25.313Z,295
2016-05-05T09:55:24.300Z,295
2016-05-05T09:56:23.989Z,295
2016-05-05T09:57:24.336Z,295
2016-05-05T09:58:24.308Z,290
2016-05-05T09:59:24.154Z,290
2016-05-05T10:00:24.157Z,290
2016-05-05T10:01:23.988Z,290
2016-05-05T10:02:24.005Z,290
2016-05-05T10:03:24.321Z,290
2016-05-05T10:04:24.167Z,285
2016-05-05T10:05:24.154Z,285
2016-05-05T10:06:24.016Z,285
2016-05-05T10:07:24.160Z,285
2016-05-05T10:08:24.318Z,285
2016-05-05T10:09:24.353Z,285
2016-05-05T10:10:24.981Z,280
2016-05-05T10:11:24.186Z,280
2016-05-05T10:12:24.190Z,280
2016-05-05T10:13:24.332Z,280
2016-05-05T10:14:24.037Z,280
2016-05-05T10:15:24.338Z,280
2016-05-05T10:16:24.184Z,275
2016-05-05T10:17:24.202Z,275
2016-05-05T10:18:24.206Z,275
2016-05-05T10:19:24.208Z,275
2016-05-05T10:20:24.210Z,275
2016-05-05T10:21:24.214Z,275
2016-05-05T10:22:24.200Z,275
2016-05-05T10:23:24.359Z,275
2016-05-05T10:24:24.377Z,275
2016-05-05T10:25:24.364Z,275
2016-05-05T10:26:24.367Z,275
2016-05-05T10:27:24.370Z,270
2016-05-05T10:28:25.825Z,270
2016-05-05T10:29:26.578Z,270
2016-05-05T10:30:24.221Z,270
2016-05-05T10:31:24.427Z,270
2016-05-05T10:32:24.478Z,270
2016-05-05T10:33:24.636Z,270
2016-05-05T10:34:24.577Z,270
2016-05-05T10:35:24.532Z,265
2016-05-05T10:36:24.379Z,265
2016-05-05T10:37:24.397Z,270
2016-05-05T10:38:39.790Z,270
2016-05-05T10:39:25.902Z,265
2016-05-05T10:40:24.795Z,270
2016-05-05T10:41:25.142Z,265
2016-05-05T10:42:24.988Z,265
2016-05-05T10:43:24.288Z,260
2016-05-05T10:44:25.743Z,260
2016-05-05T10:45:24.434Z,260
2016-05-05T10:46:25.656Z,260
2016-05-05T10:47:24.096Z,260
2016-05-05T10:48:25.317Z,260
2016-05-05T10:49:25.054Z,260
2016-05-05T10:50:24.791Z,255
2016-05-05T10:51:24.262Z,255
2016-05-05T10:52:24.422Z,255
2016-05-05T10:53:24.439Z,255
2016-05-05T10:54:24.802Z,255
2016-05-05T10:55:24.523Z,255
2016-05-05T10:56:24.480Z,255
2016-05-05T10:57:24.935Z,255
2016-05-05T10:58:25.376Z,250
2016-05-05T10:59:24.719Z,250
2016-05-05T11:00:25.202Z,250
2016-05-05T11:01:24.609Z,250
2016-05-05T11:02:24.498Z,250
2016-05-05T11:03:24.681Z,250
2016-05-05T11:04:24.387Z,250
2016-05-05T11:05:24.561Z,250
2016-05-05T11:06:24.737Z,245
2016-05-05T11:07:24.739Z,245
2016-05-05T11:08:24.767Z,245
2016-05-05T11:09:24.618Z,245
2016-05-05T11:10:24.767Z,245
2016-05-05T11:11:24.775Z,245
2016-05-05T11:12:24.627Z,245
2016-05-05T11:13:24.788Z,245
2016-05-05T11:14:24.809Z,240
2016-05-05T11:15:24.656Z,240
2016-05-05T11:16:24.802Z,240
2016-05-05T11:17:24.822Z,240
2016-05-05T11:18:24.827Z,240
2016-05-05T11:19:24.845Z,240
2016-05-05T11:20:24.833Z,240
2016-05-05T11:21:24.536Z,240
2016-05-05T11:22:24.821Z,240
2016-05-05T11:23:24.852Z,240
2016-05-05T11:24:24.824Z,240
2016-05-05T11:25:24.827Z,240
2016-05-05T11:26:24.830Z,240
2016-05-05T11:27:24.833Z,235
2016-05-05T11:28:24.696Z,235
2016-05-05T11:29:24.683Z,240
2016-05-05T11:30:24.686Z,235
2016-05-05T11:31:24.547Z,235
2016-05-05T11:32:24.848Z,235
2016-05-05T11:33:24.382Z,235
2016-05-05T11:34:24.713Z,235
2016-05-05T11:35:24.855Z,235
2016-05-05T11:36:24.874Z,235
2016-05-05T11:37:24.705Z,235
2016-05-05T11:38:24.879Z,235
2016-05-05T11:39:24.882Z,235
2016-05-05T11:40:24.995Z,235
2016-05-05T11:41:24.716Z,235
2016-05-05T11:42:24.719Z,235
2016-05-05T11:43:24.877Z,235
2016-05-05T11:44:24.724Z,235
2016-05-05T11:45:24.882Z,230
2016-05-05T11:46:24.886Z,230
2016-05-05T11:47:24.732Z,230
2016-05-05T11:48:27.143Z,230
2016-05-05T11:49:26.240Z,230
2016-05-05T11:50:25.552Z,230
2016-05-05T11:51:25.415Z,230
2016-05-05T11:52:25.417Z,230
2016-05-05T11:53:24.904Z,230
2016-05-05T11:54:25.001Z,230
2016-05-05T11:55:24.941Z,230
2016-05-05T11:56:24.944Z,230
2016-05-05T11:57:27.574Z,230
2016-05-05T11:58:25.871Z,230
2016-05-05T11:59:24.764Z,230
2016-05-05T12:00:24.923Z,230
2016-05-05T12:01:24.769Z,230
2016-05-05T12:02:25.334Z,230
2016-05-05T12:03:26.509Z,230
2016-05-05T12:04:27.265Z,230
2016-05-05T12:05:24.797Z,230
2016-05-05T12:06:24.939Z,230
2016-05-05T12:07:25.333Z,230
2016-05-05T12:08:25.288Z,230
2016-05-05T12:09:24.916Z,230
2016-05-05T12:10:24.903Z,230
2016-05-05T12:11:24.625Z,230
2016-05-05T12:12:25.736Z,230
2016-05-05T12:13:24.974Z,230
2016-05-05T12:14:24.976Z,230
2016-05-05T12:15:25.401Z,230
2016-05-05T12:16:25.950Z,230
2016-05-05T12:17:25.125Z,230
2016-05-05T12:18:25.394Z,230
2016-05-05T12:19:24.990Z,235
2016-05-05T12:20:24.946Z,235
2016-05-05T12:21:24.979Z,235
2016-05-05T12:22:24.810Z,235
2016-05-05T12:23:24.812Z,235
2016-05-05T12:24:24.831Z,235
2016-05-05T12:25:24.819Z,235
2016-05-05T12:26:24.978Z,235
2016-05-05T12:27:25.012Z,240
2016-05-05T12:28:24.826Z,240
2016-05-05T12:29:24.689Z,240
2016-05-05T12:30:24.988Z,240
2016-05-05T12:31:24.851Z,240
2016-05-05T12:32:24.994Z,240
2016-05-05T12:33:24.996Z,235
2016-05-05T12:34:24.999Z,240
2016-05-05T12:35:25.017Z,240
2016-05-05T12:36:25.004Z,240
2016-05-05T12:37:25.007Z,245
2016-05-05T12:38:24.853Z,240
2016-05-05T12:39:24.888Z,240
2016-05-05T12:40:24.874Z,240
2016-05-05T12:41:25.018Z,240
2016-05-05T12:42:25.021Z,240
2016-05-05T12:43:25.038Z,240
2016-05-05T12:44:24.869Z,245
2016-05-05T12:45:25.029Z,245
2016-05-05T12:46:25.032Z,255
2016-05-05T12:47:25.034Z,260
2016-05-05T12:48:24.896Z,270
2016-05-05T12:49:25.040Z,285
2016-05-05T12:50:24.885Z,295
2016-05-05T12:51:25.045Z,310
2016-05-05T12:52:25.047Z,315
2016-05-05T12:53:25.050Z,315
2016-05-05T12:54:24.912Z,305
2016-05-05T12:55:25.368Z,295
2016-05-05T12:56:24.902Z,290
2016-05-05T12:57:25.061Z,295
2016-05-05T12:58:24.906Z,300
2016-05-05T12:59:24.909Z,305
2016-05-05T13:00:25.070Z,305
2016-05-05T13:01:24.790Z,305
2016-05-05T13:02:24.918Z,305
2016-05-05T13:03:24.920Z,315
2016-05-05T13:04:25.095Z,315
2016-05-05T13:05:24.786Z,325
2016-05-05T13:06:39.119Z,330
2016-05-05T13:07:27.150Z,325
2016-05-05T13:08:26.247Z,320
2016-05-05T13:09:25.156Z,310
2016-05-05T13:10:25.299Z,300
2016-05-05T13:11:25.708Z,295
2016-05-05T13:12:25.414Z,300
2016-05-05T13:13:25.119Z,305
2016-05-05T13:14:25.122Z,315
2016-05-05T13:15:25.124Z,315
2016-05-05T13:16:27.518Z,320
2016-05-05T13:17:25.474Z,325
2016-05-05T13:18:25.571Z,330
2016-05-05T13:19:25.448Z,325
2016-05-05T13:20:25.544Z,330
2016-05-05T13:21:25.141Z,330
2016-05-05T13:22:26.222Z,325
2016-05-05T13:23:26.349Z,325
2016-05-05T13:24:25.759Z,325
2016-05-05T13:25:25.027Z,325
2016-05-05T13:26:26.014Z,325
2016-05-05T13:27:25.798Z,325
2016-05-05T13:28:25.160Z,320
2016-05-05T13:29:25.178Z,320
2016-05-05T13:30:25.025Z,320
2016-05-05T13:31:28.184Z,325
2016-05-05T13:32:27.420Z,330
2016-05-05T13:33:25.408Z,335
2016-05-05T13:34:25.989Z,335
2016-05-05T13:35:25.695Z,335
2016-05-05T13:36:24.900Z,330
2016-05-05T13:37:29.121Z,330
2016-05-05T13:38:26.828Z,330
2016-05-05T13:39:26.283Z,330
2016-05-05T13:40:25.083Z,335
2016-05-05T13:41:25.070Z,335
2016-05-05T13:42:25.228Z,325
2016-05-05T13:43:25.231Z,320
2016-05-05T13:44:25.094Z,325
2016-05-05T13:45:25.252Z,320
2016-05-05T13:46:25.099Z,320
2016-05-05T13:47:25.258Z,325
2016-05-05T13:48:25.261Z,335
2016-05-05T13:49:25.279Z,345
2016-05-05T13:50:25.281Z,355
2016-05-05T13:51:24.957Z,365
2016-05-05T13:52:25.287Z,370
2016-05-05T13:53:25.274Z,370
2016-05-05T13:54:25.277Z,365
2016-05-05T13:55:24.982Z,350
2016-05-05T13:56:25.141Z,335
2016-05-05T13:57:25.144Z,310